sensor_id;sensor_type;location;lat;lon;timestamp;pressure;altitude;pressure_sealevel;temperature;humidity
75312;BME280;63906;55.686;37.532;2023-03-01T00:04:45;98709.19;;;-4.82;62.99
75312;BME280;63906;55.686;37.532;2023-03-01T00:09:45;98690.75;;;-4.88;61.60
75312;BME280;63906;55.686;37.532;2023-03-01T00:14:46;98704.06;;;-4.82;61.30
75312;BME280;63906;55.686;37.532;2023-03-01T00:19:46;98706.03;;;-4.75;61.37
75312;BME280;63906;55.686;37.532;2023-03-01T00:24:47;98683.03;;;-4.99;62.07
75312;BME280;63906;55.686;37.532;2023-03-01T00:29:48;98711.28;;;-4.88;60.83
75312;BME280;63906;55.686;37.532;2023-03-01T00:34:48;98691.66;;;-5.00;61.65
75312;BME280;63906;55.686;37.532;2023-03-01T00:39:54;98684.44;;;-4.95;61.28
75312;BME280;63906;55.686;37.532;2023-03-01T00:44:55;98685.34;;;-4.84;60.43
75312;BME280;63906;55.686;37.532;2023-03-01T00:49:55;98691.91;;;-4.80;60.16
75312;BME280;63906;55.686;37.532;2023-03-01T00:54:56;98686.91;;;-4.82;59.85
75312;BME280;63906;55.686;37.532;2023-03-01T00:59:58;98691.34;;;-4.84;59.88
75312;BME280;63906;55.686;37.532;2023-03-01T01:04:58;98673.84;;;-4.90;60.31
75312;BME280;63906;55.686;37.532;2023-03-01T01:09:59;98678.94;;;-5.01;60.32
75312;BME280;63906;55.686;37.532;2023-03-01T01:15:00;98683.63;;;-4.95;60.26
75312;BME280;63906;55.686;37.532;2023-03-01T01:20:00;98696.31;;;-5.05;60.05
75312;BME280;63906;55.686;37.532;2023-03-01T01:25:01;98678.59;;;-5.08;60.17
75312;BME280;63906;55.686;37.532;2023-03-01T01:30:02;98669.25;;;-5.20;60.82
75312;BME280;63906;55.686;37.532;2023-03-01T01:35:03;98680.53;;;-5.23;59.82
75312;BME280;63906;55.686;37.532;2023-03-01T01:40:04;98684.75;;;-5.22;60.51
75312;BME280;63906;55.686;37.532;2023-03-01T01:45:34;98696.97;;;-5.25;60.80
75312;BME280;63906;55.686;37.532;2023-03-01T01:50:35;98673.16;;;-5.38;59.92
75312;BME280;63906;55.686;37.532;2023-03-01T01:55:43;98666.03;;;-5.35;59.86
75312;BME280;63906;55.686;37.532;2023-03-01T02:00:45;98683.78;;;-5.32;59.96
75312;BME280;63906;55.686;37.532;2023-03-01T02:05:55;98690.91;;;-5.24;60.44
75312;BME280;63906;55.686;37.532;2023-03-01T02:10:58;98691.00;;;-5.37;60.58
75312;BME280;63906;55.686;37.532;2023-03-01T02:16:03;98639.28;;;-5.66;60.19
75312;BME280;63906;55.686;37.532;2023-03-01T02:21:20;98684.34;;;-5.39;60.53
75312;BME280;63906;55.686;37.532;2023-03-01T02:26:42;98703.56;;;-5.45;60.91
75312;BME280;63906;55.686;37.532;2023-03-01T02:31:45;98679.16;;;-5.62;61.10
75312;BME280;63906;55.686;37.532;2023-03-01T02:36:48;98687.22;;;-5.55;61.08
75312;BME280;63906;55.686;37.532;2023-03-01T02:41:51;98666.06;;;-5.70;61.19
75312;BME280;63906;55.686;37.532;2023-03-01T02:46:56;98688.22;;;-5.69;60.99
75312;BME280;63906;55.686;37.532;2023-03-01T02:57:18;98703.16;;;-5.63;61.42
75312;BME280;63906;55.686;37.532;2023-03-01T03:02:22;98644.38;;;-6.12;61.64
75312;BME280;63906;55.686;37.532;2023-03-01T03:07:38;98699.22;;;-5.80;62.08
75312;BME280;63906;55.686;37.532;2023-03-01T03:12:39;98697.31;;;-5.89;62.41
75312;BME280;63906;55.686;37.532;2023-03-01T03:17:41;98715.28;;;-5.78;62.23
75312;BME280;63906;55.686;37.532;2023-03-01T03:22:42;98719.59;;;-5.78;62.35
75312;BME280;63906;55.686;37.532;2023-03-01T03:27:44;98675.09;;;-6.12;62.88
75312;BME280;63906;55.686;37.532;2023-03-01T03:32:46;98712.00;;;-5.91;63.03
75312;BME280;63906;55.686;37.532;2023-03-01T03:37:52;98707.66;;;-6.02;63.11
75312;BME280;63906;55.686;37.532;2023-03-01T03:43:03;98726.28;;;-6.00;63.44
75312;BME280;63906;55.686;37.532;2023-03-01T03:48:06;98724.66;;;-6.01;63.69
75312;BME280;63906;55.686;37.532;2023-03-01T03:53:10;98715.47;;;-6.16;63.52
75312;BME280;63906;55.686;37.532;2023-03-01T03:58:11;98726.63;;;-6.17;63.91
75312;BME280;63906;55.686;37.532;2023-03-01T04:03:13;98714.50;;;-6.26;64.03
75312;BME280;63906;55.686;37.532;2023-03-01T04:08:14;98720.44;;;-6.26;64.42
75312;BME280;63906;55.686;37.532;2023-03-01T04:13:17;98691.56;;;-6.40;64.56
75312;BME280;63906;55.686;37.532;2023-03-01T04:18:22;98732.69;;;-6.18;64.35
75312;BME280;63906;55.686;37.532;2023-03-01T04:23:23;98743.88;;;-6.19;64.75
75312;BME280;63906;55.686;37.532;2023-03-01T04:28:29;98735.78;;;-6.26;64.56
75312;BME280;63906;55.686;37.532;2023-03-01T04:33:30;98755.84;;;-6.19;64.22
75312;BME280;63906;55.686;37.532;2023-03-01T04:38:30;98717.16;;;-6.40;64.78
75312;BME280;63906;55.686;37.532;2023-03-01T04:43:32;98719.25;;;-6.45;64.53
75312;BME280;63906;55.686;37.532;2023-03-01T04:48:37;98728.56;;;-6.44;65.31
75312;BME280;63906;55.686;37.532;2023-03-01T04:53:39;98761.50;;;-6.27;65.02
75312;BME280;63906;55.686;37.532;2023-03-01T04:58:40;98773.91;;;-6.21;64.95
75312;BME280;63906;55.686;37.532;2023-03-01T05:03:50;98763.19;;;-6.15;64.57
75312;BME280;63906;55.686;37.532;2023-03-01T05:08:51;98767.00;;;-6.08;64.54
75312;BME280;63906;55.686;37.532;2023-03-01T05:13:51;98774.03;;;-5.99;64.20
75312;BME280;63906;55.686;37.532;2023-03-01T05:18:55;98792.94;;;-5.88;64.49
75312;BME280;63906;55.686;37.532;2023-03-01T05:23:55;98785.72;;;-5.94;64.43
75312;BME280;63906;55.686;37.532;2023-03-01T05:28:56;98781.59;;;-5.73;64.55
75312;BME280;63906;55.686;37.532;2023-03-01T05:33:58;98816.25;;;-5.68;64.51
75312;BME280;63906;55.686;37.532;2023-03-01T05:38:59;98791.59;;;-5.81;64.24
75312;BME280;63906;55.686;37.532;2023-03-01T05:44:00;98800.38;;;-5.73;64.10
75312;BME280;63906;55.686;37.532;2023-03-01T05:49:00;98811.72;;;-5.64;63.64
75312;BME280;63906;55.686;37.532;2023-03-01T05:54:02;98799.13;;;-5.67;63.92
75312;BME280;63906;55.686;37.532;2023-03-01T05:59:06;98813.09;;;-5.47;63.95
75312;BME280;63906;55.686;37.532;2023-03-01T06:04:06;98814.91;;;-5.36;63.33
75312;BME280;63906;55.686;37.532;2023-03-01T06:09:07;98806.19;;;-5.34;63.28
75312;BME280;63906;55.686;37.532;2023-03-01T06:14:09;98815.50;;;-5.09;63.09
75312;BME280;63906;55.686;37.532;2023-03-01T06:19:10;98816.72;;;-4.91;62.40
75312;BME280;63906;55.686;37.532;2023-03-01T06:24:11;98824.47;;;-4.68;62.41
75312;BME280;63906;55.686;37.532;2023-03-01T06:29:11;98828.97;;;-4.37;61.07
75312;BME280;63906;55.686;37.532;2023-03-01T06:34:12;98806.78;;;-4.38;61.04
75312;BME280;63906;55.686;37.532;2023-03-01T06:39:13;98784.81;;;-4.42;60.96
75312;BME280;63906;55.686;37.532;2023-03-01T06:44:14;98825.97;;;-4.08;60.15
75312;BME280;63906;55.686;37.532;2023-03-01T06:49:14;98814.03;;;-4.20;59.97
75312;BME280;63906;55.686;37.532;2023-03-01T06:54:16;98834.72;;;-3.88;59.79
75312;BME280;63906;55.686;37.532;2023-03-01T06:59:18;98835.28;;;-4.07;60.29
75312;BME280;63906;55.686;37.532;2023-03-01T07:04:19;98836.25;;;-3.97;60.17
75312;BME280;63906;55.686;37.532;2023-03-01T07:09:19;98823.63;;;-3.89;59.11
75312;BME280;63906;55.686;37.532;2023-03-01T07:14:22;98807.25;;;-3.99;59.87
75312;BME280;63906;55.686;37.532;2023-03-01T07:19:24;98851.28;;;-3.81;60.28
75312;BME280;63906;55.686;37.532;2023-03-01T07:24:25;98864.50;;;-4.08;60.59
75312;BME280;63906;55.686;37.532;2023-03-01T07:29:25;98855.84;;;-4.18;61.62
75312;BME280;63906;55.686;37.532;2023-03-01T07:34:26;98835.97;;;-4.39;61.91
75312;BME280;63906;55.686;37.532;2023-03-01T07:39:27;98856.53;;;-4.16;61.69
75312;BME280;63906;55.686;37.532;2023-03-01T07:44:27;98857.28;;;-4.03;61.90
75312;BME280;63906;55.686;37.532;2023-03-01T07:49:28;98884.25;;;-3.64;60.87
75312;BME280;63906;55.686;37.532;2023-03-01T07:54:29;98839.03;;;-3.89;60.29
75312;BME280;63906;55.686;37.532;2023-03-01T07:59:29;98865.44;;;-3.75;60.57
75312;BME280;63906;55.686;37.532;2023-03-01T08:04:30;98881.56;;;-3.62;60.31
75312;BME280;63906;55.686;37.532;2023-03-01T08:09:30;98877.81;;;-3.58;60.18
75312;BME280;63906;55.686;37.532;2023-03-01T08:14:32;98882.97;;;-3.58;60.14
75312;BME280;63906;55.686;37.532;2023-03-01T08:19:32;98886.28;;;-3.24;59.79
75312;BME280;63906;55.686;37.532;2023-03-01T08:24:39;98860.63;;;-3.46;59.77
75312;BME280;63906;55.686;37.532;2023-03-01T08:29:40;98880.91;;;-3.21;58.89
75312;BME280;63906;55.686;37.532;2023-03-01T08:34:40;98862.59;;;-3.39;59.00
75312;BME280;63906;55.686;37.532;2023-03-01T08:39:41;98871.81;;;-3.36;58.73
75312;BME280;63906;55.686;37.532;2023-03-01T08:44:45;98895.63;;;-3.23;58.58
75312;BME280;63906;55.686;37.532;2023-03-01T08:49:45;98886.25;;;-3.13;58.04
75312;BME280;63906;55.686;37.532;2023-03-01T08:54:48;98881.53;;;-2.96;58.39
75312;BME280;63906;55.686;37.532;2023-03-01T08:59:49;98900.78;;;-2.80;57.42
75312;BME280;63906;55.686;37.532;2023-03-01T09:04:49;98896.00;;;-2.84;56.60
75312;BME280;63906;55.686;37.532;2023-03-01T09:09:50;98883.41;;;-2.66;57.05
75312;BME280;63906;55.686;37.532;2023-03-01T09:14:53;98903.41;;;-2.38;56.63
75312;BME280;63906;55.686;37.532;2023-03-01T09:19:54;98886.75;;;-2.34;55.65
75312;BME280;63906;55.686;37.532;2023-03-01T09:24:54;98897.94;;;-2.03;55.27
75312;BME280;63906;55.686;37.532;2023-03-01T09:29:56;98871.25;;;-1.92;56.09
75312;BME280;63906;55.686;37.532;2023-03-01T09:34:57;98897.34;;;-1.85;54.98
75312;BME280;63906;55.686;37.532;2023-03-01T09:40:14;98832.34;;;-2.10;54.71
75312;BME280;63906;55.686;37.532;2023-03-01T09:45:33;98897.88;;;-1.51;55.46
75312;BME280;63906;55.686;37.532;2023-03-01T09:50:41;98837.81;;;-1.94;54.75
75312;BME280;63906;55.686;37.532;2023-03-01T09:56:01;98880.16;;;-1.66;54.63
75312;BME280;63906;55.686;37.532;2023-03-01T10:06:44;98912.69;;;-1.44;54.00
75312;BME280;63906;55.686;37.532;2023-03-01T10:11:55;98932.34;;;-1.22;53.90
75312;BME280;63906;55.686;37.532;2023-03-01T10:16:59;98915.28;;;-0.84;53.62
75312;BME280;63906;55.686;37.532;2023-03-01T10:22:17;98911.97;;;-0.09;52.96
75312;BME280;63906;55.686;37.532;2023-03-01T10:27:29;98908.09;;;0.15;50.79
75312;BME280;63906;55.686;37.532;2023-03-01T10:32:34;98929.91;;;0.03;50.66
75312;BME280;63906;55.686;37.532;2023-03-01T10:37:35;98933.34;;;0.40;49.95
75312;BME280;63906;55.686;37.532;2023-03-01T10:42:47;98914.47;;;-0.36;49.12
75312;BME280;63906;55.686;37.532;2023-03-01T10:48:03;98927.41;;;-0.56;52.01
75312;BME280;63906;55.686;37.532;2023-03-01T10:53:04;98926.16;;;-0.61;50.82
75312;BME280;63906;55.686;37.532;2023-03-01T11:03:19;98929.00;;;-0.35;49.64
75312;BME280;63906;55.686;37.532;2023-03-01T11:08:44;98933.22;;;-0.44;50.58
75312;BME280;63906;55.686;37.532;2023-03-01T11:14:18;98945.34;;;-0.64;49.45
75312;BME280;63906;55.686;37.532;2023-03-01T11:19:20;98919.41;;;0.04;50.04
75312;BME280;63906;55.686;37.532;2023-03-01T11:24:30;98915.38;;;1.65;47.78
75312;BME280;63906;55.686;37.532;2023-03-01T11:40:16;98922.28;;;2.26;43.67
75312;BME280;63906;55.686;37.532;2023-03-01T11:45:23;98912.16;;;0.54;45.52
75312;BME280;63906;55.686;37.532;2023-03-01T11:50:47;98924.38;;;-0.22;47.82
75312;BME280;63906;55.686;37.532;2023-03-01T12:18:38;98947.09;;;-0.16;48.52
75312;BME280;63906;55.686;37.532;2023-03-01T12:23:38;98947.66;;;-0.22;48.47
75312;BME280;63906;55.686;37.532;2023-03-01T12:29:17;98946.69;;;-0.40;48.45
75312;BME280;63906;55.686;37.532;2023-03-01T12:50:24;98961.63;;;-0.83;47.82
75312;BME280;63906;55.686;37.532;2023-03-01T12:55:39;98947.91;;;-0.83;48.19
75312;BME280;63906;55.686;37.532;2023-03-01T13:01:35;98919.03;;;-1.08;48.78
75312;BME280;63906;55.686;37.532;2023-03-01T13:11:20;98952.47;;;-1.16;48.96
75312;BME280;63906;55.686;37.532;2023-03-01T13:21:30;98965.44;;;-1.37;50.81
75312;BME280;63906;55.686;37.532;2023-03-01T13:32:19;98944.75;;;-1.46;51.92
75312;BME280;63906;55.686;37.532;2023-03-01T13:37:31;98928.25;;;-1.65;51.02
75312;BME280;63906;55.686;37.532;2023-03-01T13:47:34;98938.13;;;-1.70;51.90
75312;BME280;63906;55.686;37.532;2023-03-01T13:52:50;98914.13;;;-1.91;52.88
75312;BME280;63906;55.686;37.532;2023-03-01T13:58:02;98935.63;;;-1.81;53.70
75312;BME280;63906;55.686;37.532;2023-03-01T14:03:09;98924.97;;;-1.97;53.37
75312;BME280;63906;55.686;37.532;2023-03-01T14:08:29;98918.56;;;-2.03;53.67
75312;BME280;63906;55.686;37.532;2023-03-01T14:14:04;98902.25;;;-2.03;54.19
75312;BME280;63906;55.686;37.532;2023-03-01T14:19:18;98916.28;;;-1.96;54.37
75312;BME280;63906;55.686;37.532;2023-03-01T14:24:26;98899.25;;;-2.08;53.81
75312;BME280;63906;55.686;37.532;2023-03-01T14:29:34;98904.53;;;-2.10;53.92
75312;BME280;63906;55.686;37.532;2023-03-01T14:34:35;98890.75;;;-2.20;53.78
75312;BME280;63906;55.686;37.532;2023-03-01T14:39:36;98858.97;;;-2.51;53.88
75312;BME280;63906;55.686;37.532;2023-03-01T14:44:37;98876.56;;;-2.35;54.40
75312;BME280;63906;55.686;37.532;2023-03-01T14:49:38;98891.72;;;-2.21;54.98
75312;BME280;63906;55.686;37.532;2023-03-01T14:54:43;98876.69;;;-2.37;55.10
75312;BME280;63906;55.686;37.532;2023-03-01T14:59:45;98883.91;;;-2.31;55.75
75312;BME280;63906;55.686;37.532;2023-03-01T15:04:52;98911.75;;;-2.25;56.41
75312;BME280;63906;55.686;37.532;2023-03-01T15:09:58;98891.22;;;-2.36;56.80
75312;BME280;63906;55.686;37.532;2023-03-01T15:14:59;98865.69;;;-2.39;58.48
75312;BME280;63906;55.686;37.532;2023-03-01T15:20:01;98903.84;;;-2.33;59.25
75312;BME280;63906;55.686;37.532;2023-03-01T15:25:03;98892.41;;;-2.40;58.87
75312;BME280;63906;55.686;37.532;2023-03-01T15:30:04;98894.81;;;-2.48;59.76
75312;BME280;63906;55.686;37.532;2023-03-01T15:35:39;98895.13;;;-2.41;59.37
75312;BME280;63906;55.686;37.532;2023-03-01T15:40:49;98881.47;;;-2.53;58.86
75312;BME280;63906;55.686;37.532;2023-03-01T15:45:56;98887.88;;;-2.48;58.12
75312;BME280;63906;55.686;37.532;2023-03-01T15:50:59;98892.97;;;-2.36;57.41
75312;BME280;63906;55.686;37.532;2023-03-01T15:55:59;98912.97;;;-2.29;56.09
75312;BME280;63906;55.686;37.532;2023-03-01T16:01:03;98883.16;;;-2.42;56.66
75312;BME280;63906;55.686;37.532;2023-03-01T16:06:03;98872.66;;;-2.51;56.28
75312;BME280;63906;55.686;37.532;2023-03-01T16:11:05;98883.28;;;-2.44;57.09
75312;BME280;63906;55.686;37.532;2023-03-01T16:16:13;98849.66;;;-2.63;57.00
75312;BME280;63906;55.686;37.532;2023-03-01T16:21:25;98900.59;;;-2.35;56.73
75312;BME280;63906;55.686;37.532;2023-03-01T16:26:25;98902.44;;;-2.37;57.73
75312;BME280;63906;55.686;37.532;2023-03-01T16:31:26;98880.09;;;-2.57;58.44
75312;BME280;63906;55.686;37.532;2023-03-01T16:36:27;98861.38;;;-2.59;58.10
75312;BME280;63906;55.686;37.532;2023-03-01T16:41:28;98877.38;;;-2.56;58.49
75312;BME280;63906;55.686;37.532;2023-03-01T16:46:29;98855.44;;;-2.50;57.96
75312;BME280;63906;55.686;37.532;2023-03-01T16:51:30;98868.53;;;-2.42;57.48
75312;BME280;63906;55.686;37.532;2023-03-01T16:56:30;98876.38;;;-2.44;57.74
75312;BME280;63906;55.686;37.532;2023-03-01T17:01:32;98864.19;;;-2.41;58.39
75312;BME280;63906;55.686;37.532;2023-03-01T17:06:35;98859.66;;;-2.49;58.40
75312;BME280;63906;55.686;37.532;2023-03-01T17:11:35;98829.25;;;-2.55;58.62
75312;BME280;63906;55.686;37.532;2023-03-01T17:16:36;98829.63;;;-2.60;58.35
75312;BME280;63906;55.686;37.532;2023-03-01T17:21:37;98851.50;;;-2.33;57.99
75312;BME280;63906;55.686;37.532;2023-03-01T17:26:38;98848.78;;;-2.32;58.15
75312;BME280;63906;55.686;37.532;2023-03-01T17:31:39;98847.41;;;-2.36;58.82
75312;BME280;63906;55.686;37.532;2023-03-01T17:36:40;98824.41;;;-2.49;59.68
75312;BME280;63906;55.686;37.532;2023-03-01T17:41:43;98817.31;;;-2.56;60.36
75312;BME280;63906;55.686;37.532;2023-03-01T17:46:44;98843.69;;;-2.43;60.96
75312;BME280;63906;55.686;37.532;2023-03-01T17:51:44;98807.78;;;-2.65;61.57
75312;BME280;63906;55.686;37.532;2023-03-01T17:56:45;98818.53;;;-2.60;61.96
75312;BME280;63906;55.686;37.532;2023-03-01T18:01:46;98796.22;;;-2.71;61.69
75312;BME280;63906;55.686;37.532;2023-03-01T18:06:46;98803.94;;;-2.71;62.23
75312;BME280;63906;55.686;37.532;2023-03-01T18:11:47;98794.38;;;-2.59;62.31
75312;BME280;63906;55.686;37.532;2023-03-01T18:16:47;98818.25;;;-2.57;62.25
75312;BME280;63906;55.686;37.532;2023-03-01T18:21:48;98817.38;;;-2.47;61.77
75312;BME280;63906;55.686;37.532;2023-03-01T18:26:48;98829.44;;;-2.47;61.36
75312;BME280;63906;55.686;37.532;2023-03-01T18:31:50;98788.63;;;-2.73;61.82
75312;BME280;63906;55.686;37.532;2023-03-01T18:36:50;98789.88;;;-2.67;61.70
75312;BME280;63906;55.686;37.532;2023-03-01T18:41:51;98819.88;;;-2.56;62.14
75312;BME280;63906;55.686;37.532;2023-03-01T18:46:51;98802.63;;;-2.65;62.72
75312;BME280;63906;55.686;37.532;2023-03-01T18:51:52;98787.22;;;-2.77;63.29
75312;BME280;63906;55.686;37.532;2023-03-01T18:56:53;98794.81;;;-2.75;63.08
75312;BME280;63906;55.686;37.532;2023-03-01T19:01:53;98809.53;;;-2.66;63.62
75312;BME280;63906;55.686;37.532;2023-03-01T19:06:54;98796.53;;;-2.64;63.50
75312;BME280;63906;55.686;37.532;2023-03-01T19:11:57;98804.25;;;-2.64;64.00
75312;BME280;63906;55.686;37.532;2023-03-01T19:17:00;98728.84;;;-2.97;62.79
75312;BME280;63906;55.686;37.532;2023-03-01T19:22:01;98788.84;;;-2.55;63.51
75312;BME280;63906;55.686;37.532;2023-03-01T19:27:03;98811.22;;;-2.55;63.43
75312;BME280;63906;55.686;37.532;2023-03-01T19:32:04;98780.81;;;-2.61;63.42
75312;BME280;63906;55.686;37.532;2023-03-01T19:37:04;98754.19;;;-2.72;63.34
75312;BME280;63906;55.686;37.532;2023-03-01T19:42:05;98754.25;;;-2.83;63.61
75312;BME280;63906;55.686;37.532;2023-03-01T19:47:06;98762.75;;;-2.61;64.15
75312;BME280;63906;55.686;37.532;2023-03-01T19:52:06;98761.66;;;-2.68;64.32
75312;BME280;63906;55.686;37.532;2023-03-01T19:57:07;98770.91;;;-2.66;64.50
75312;BME280;63906;55.686;37.532;2023-03-01T20:02:08;98720.34;;;-2.88;64.17
75312;BME280;63906;55.686;37.532;2023-03-01T20:07:09;98769.56;;;-2.60;64.11
75312;BME280;63906;55.686;37.532;2023-03-01T20:12:10;98762.09;;;-2.63;64.89
75312;BME280;63906;55.686;37.532;2023-03-01T20:17:13;98740.22;;;-2.69;65.09
75312;BME280;63906;55.686;37.532;2023-03-01T20:22:14;98735.38;;;-2.62;65.79
75312;BME280;63906;55.686;37.532;2023-03-01T20:27:14;98746.72;;;-2.44;66.43
75312;BME280;63906;55.686;37.532;2023-03-01T20:32:15;98732.06;;;-2.44;66.86
75312;BME280;63906;55.686;37.532;2023-03-01T20:37:15;98716.41;;;-2.61;68.75
75312;BME280;63906;55.686;37.532;2023-03-01T20:42:16;98720.84;;;-2.73;70.19
75312;BME280;63906;55.686;37.532;2023-03-01T20:47:17;98725.34;;;-2.86;70.51
75312;BME280;63906;55.686;37.532;2023-03-01T20:52:19;98723.78;;;-2.78;71.53
75312;BME280;63906;55.686;37.532;2023-03-01T20:57:20;98719.09;;;-2.93;72.96
75312;BME280;63906;55.686;37.532;2023-03-01T21:02:21;98722.97;;;-3.20;72.93
75312;BME280;63906;55.686;37.532;2023-03-01T21:07:21;98703.06;;;-3.39;73.65
75312;BME280;63906;55.686;37.532;2023-03-01T21:12:22;98713.81;;;-3.34;73.38
75312;BME280;63906;55.686;37.532;2023-03-01T21:17:22;98682.66;;;-3.72;73.36
75312;BME280;63906;55.686;37.532;2023-03-01T21:22:23;98735.53;;;-3.27;73.95
75312;BME280;63906;55.686;37.532;2023-03-01T21:27:23;98708.47;;;-3.42;73.63
75312;BME280;63906;55.686;37.532;2023-03-01T21:32:24;98740.38;;;-3.33;74.04
75312;BME280;63906;55.686;37.532;2023-03-01T21:37:27;98751.19;;;-3.30;73.44
75312;BME280;63906;55.686;37.532;2023-03-01T21:42:27;98708.72;;;-3.45;74.26
75312;BME280;63906;55.686;37.532;2023-03-01T21:47:31;98729.72;;;-3.29;73.71
75312;BME280;63906;55.686;37.532;2023-03-01T21:52:33;98735.66;;;-3.07;73.98
75312;BME280;63906;55.686;37.532;2023-03-01T21:57:34;98682.06;;;-3.44;73.20
75312;BME280;63906;55.686;37.532;2023-03-01T22:02:42;98724.97;;;-3.23;74.01
75312;BME280;63906;55.686;37.532;2023-03-01T22:07:43;98733.84;;;-3.16;73.70
75312;BME280;63906;55.686;37.532;2023-03-01T22:12:43;98738.75;;;-3.13;73.64
75312;BME280;63906;55.686;37.532;2023-03-01T22:17:44;98735.81;;;-3.09;73.67
75312;BME280;63906;55.686;37.532;2023-03-01T22:22:47;98742.25;;;-3.14;74.07
75312;BME280;63906;55.686;37.532;2023-03-01T22:27:48;98745.59;;;-3.03;73.68
75312;BME280;63906;55.686;37.532;2023-03-01T22:32:48;98702.53;;;-3.21;74.07
75312;BME280;63906;55.686;37.532;2023-03-01T22:37:49;98731.34;;;-3.07;73.25
75312;BME280;63906;55.686;37.532;2023-03-01T22:42:49;98719.34;;;-3.17;73.63
75312;BME280;63906;55.686;37.532;2023-03-01T22:47:50;98752.06;;;-2.87;73.28
75312;BME280;63906;55.686;37.532;2023-03-01T22:52:51;98752.41;;;-2.92;73.06
75312;BME280;63906;55.686;37.532;2023-03-01T22:57:51;98756.00;;;-2.83;73.19
75312;BME280;63906;55.686;37.532;2023-03-01T23:02:52;98726.38;;;-2.99;73.19
75312;BME280;63906;55.686;37.532;2023-03-01T23:07:52;98761.81;;;-2.91;73.69
75312;BME280;63906;55.686;37.532;2023-03-01T23:12:56;98764.50;;;-2.72;73.07
75312;BME280;63906;55.686;37.532;2023-03-01T23:17:57;98740.56;;;-2.83;73.41
75312;BME280;63906;55.686;37.532;2023-03-01T23:22:57;98792.19;;;-2.64;72.46
75312;BME280;63906;55.686;37.532;2023-03-01T23:28:00;98781.06;;;-2.64;72.41
75312;BME280;63906;55.686;37.532;2023-03-01T23:33:02;98742.31;;;-2.84;72.64
75312;BME280;63906;55.686;37.532;2023-03-01T23:38:03;98749.78;;;-2.81;72.56
75312;BME280;63906;55.686;37.532;2023-03-01T23:43:03;98756.16;;;-2.85;72.63
75312;BME280;63906;55.686;37.532;2023-03-01T23:48:04;98747.34;;;-2.82;73.15
75312;BME280;63906;55.686;37.532;2023-03-01T23:53:04;98736.47;;;-2.86;72.36
75312;BME280;63906;55.686;37.532;2023-03-01T23:58:05;98779.06;;;-2.82;72.45
